createdAt,value
2023-01-07T00:01:25.207Z,14.77
2023-01-07T00:03:54.127Z,14.13
2023-01-07T00:06:26.381Z,16.17
2023-01-07T00:08:55.704Z,14.38
2023-01-07T00:11:25.043Z,15.05
2023-01-07T00:13:53.402Z,14.98
2023-01-07T00:16:22.638Z,15.15
2023-01-07T00:18:51.787Z,13.93
2023-01-07T00:21:19.684Z,13.52
2023-01-07T00:23:47.702Z,12.13
2023-01-07T00:26:17.698Z,12.93
2023-01-07T00:28:45.944Z,14.85
2023-01-07T00:31:23.734Z,14.45
2023-01-07T00:34:07.100Z,15.40
2023-01-07T00:36:38.210Z,15.45
2023-01-07T00:39:19.693Z,11.50
2023-01-07T00:42:07.335Z,13.80
2023-01-07T00:44:34.722Z,14.90
2023-01-07T00:47:01.405Z,13.43
2023-01-07T00:49:28.270Z,10.98
2023-01-07T00:51:54.888Z,11.40
2023-01-07T00:54:21.542Z,12.35
2023-01-07T00:56:48.263Z,12.23
2023-01-07T00:59:14.923Z,10.88
2023-01-07T01:01:41.648Z,10.07
2023-01-07T01:04:08.394Z,9.95
2023-01-07T01:06:35.038Z,10.07
2023-01-07T01:09:01.776Z,11.95
2023-01-07T01:11:28.477Z,11.43
2023-01-07T01:13:55.092Z,12.68
2023-01-07T01:16:21.759Z,14.57
2023-01-07T01:18:48.456Z,9.10
2023-01-07T01:21:17.026Z,11.52
2023-01-07T01:23:43.748Z,10.38
2023-01-07T01:26:13.618Z,11.18
2023-01-07T01:28:40.483Z,11.45
2023-01-07T01:31:08.419Z,13.27
2023-01-07T01:33:35.633Z,13.00
2023-01-07T01:36:06.568Z,12.25
2023-01-07T01:38:33.345Z,11.03
2023-01-07T01:40:59.930Z,10.30
2023-01-07T01:43:40.080Z,14.18
2023-01-07T01:46:39.614Z,10.90
2023-01-07T01:49:17.110Z,11.85
2023-01-07T01:51:50.181Z,12.27
2023-01-07T01:54:19.909Z,13.13
2023-01-07T01:56:51.160Z,13.80
2023-01-07T01:59:20.927Z,12.07
2023-01-07T02:01:47.803Z,16.02
2023-01-07T02:04:19.668Z,14.48
2023-01-07T02:09:35.982Z,13.63
2023-01-07T02:12:22.957Z,17.42
2023-01-07T02:15:10.774Z,15.52
2023-01-07T02:18:11.315Z,18.02
2023-01-07T02:20:46.867Z,13.05
2023-01-07T02:23:23.277Z,16.27
2023-01-07T02:26:11.129Z,14.98
2023-01-07T02:28:59.391Z,10.88
2023-01-07T02:31:50.309Z,13.85
2023-01-07T02:34:30.944Z,13.80
2023-01-07T02:37:09.859Z,12.10
2023-01-07T02:39:57.183Z,12.90
2023-01-07T02:42:49.105Z,16.80
2023-01-07T02:45:40.690Z,12.48
2023-01-07T02:48:09.760Z,12.88
2023-01-07T02:50:36.373Z,12.43
2023-01-07T02:53:03.659Z,14.60
2023-01-07T02:55:57.599Z,15.00
2023-01-07T02:58:45.466Z,11.88
2023-01-07T03:01:46.099Z,12.80
2023-01-07T03:04:32.652Z,13.32
2023-01-07T03:07:12.741Z,14.68
2023-01-07T03:09:48.049Z,11.52
2023-01-07T03:12:29.906Z,10.80
2023-01-07T03:14:59.772Z,15.50
2023-01-07T03:17:34.612Z,21.20
2023-01-07T03:20:03.774Z,11.23
2023-01-07T03:22:33.305Z,13.35
2023-01-07T03:25:01.565Z,8.52
2023-01-07T03:27:31.912Z,13.18
2023-01-07T03:30:00.321Z,12.15
2023-01-07T03:32:33.023Z,15.80
2023-01-07T03:34:59.692Z,13.40
2023-01-07T03:37:27.643Z,12.55
2023-01-07T03:39:54.733Z,11.70
2023-01-07T03:42:42.254Z,16.00
2023-01-07T03:45:15.484Z,13.18
2023-01-07T03:47:46.295Z,11.60
2023-01-07T03:50:13.273Z,12.27
2023-01-07T03:52:40.082Z,12.10
2023-01-07T03:55:07.614Z,10.07
2023-01-07T03:57:34.280Z,12.15
2023-01-07T04:00:01.205Z,11.52
2023-01-07T04:02:27.917Z,14.05
2023-01-07T04:04:54.676Z,10.63
2023-01-07T04:07:21.308Z,10.80
2023-01-07T04:09:49.481Z,12.48
2023-01-07T04:12:17.226Z,13.95
2023-01-07T04:14:44.310Z,11.32
2023-01-07T04:17:11.197Z,11.15
2023-01-07T04:19:39.643Z,11.43
2023-01-07T04:22:09.371Z,12.25
2023-01-07T04:24:36.073Z,11.88
2023-01-07T04:27:02.973Z,15.80
2023-01-07T04:29:29.740Z,10.25
2023-01-07T04:31:56.715Z,11.35
2023-01-07T04:34:23.635Z,11.35
2023-01-07T04:36:50.545Z,14.32
2023-01-07T04:39:17.851Z,13.80
2023-01-07T04:41:44.842Z,12.50
2023-01-07T04:44:11.803Z,10.27
2023-01-07T04:46:38.476Z,9.93
2023-01-07T04:49:05.136Z,8.57
2023-01-07T04:51:31.932Z,9.30
2023-01-07T04:53:58.613Z,10.95
2023-01-07T04:56:25.256Z,8.48
2023-01-07T04:58:51.875Z,10.38
2023-01-07T05:01:18.902Z,9.98
2023-01-07T05:03:45.590Z,11.75
2023-01-07T05:06:12.265Z,9.93
2023-01-07T05:08:38.999Z,8.90
2023-01-07T05:11:05.694Z,11.40
2023-01-07T05:13:32.465Z,7.97
2023-01-07T05:15:59.136Z,10.05
2023-01-07T05:18:25.768Z,9.27
2023-01-07T05:20:52.401Z,12.65
2023-01-07T05:23:18.995Z,8.95
2023-01-07T05:25:45.564Z,11.35
2023-01-07T05:28:12.257Z,8.73
2023-01-07T05:30:39.401Z,7.05
2023-01-07T05:33:07.428Z,13.20
2023-01-07T05:35:34.915Z,8.88
2023-01-07T05:38:01.549Z,11.43
2023-01-07T05:40:28.193Z,10.75
2023-01-07T05:42:54.872Z,8.07
2023-01-07T05:45:21.857Z,9.90
2023-01-07T05:47:49.023Z,7.68
2023-01-07T05:50:15.738Z,7.68
2023-01-07T05:52:42.337Z,8.60
2023-01-07T05:55:09.224Z,10.70
2023-01-07T05:57:35.885Z,8.80
2023-01-07T06:00:02.978Z,6.82
2023-01-07T06:02:29.606Z,9.63
2023-01-07T06:04:56.295Z,7.65
2023-01-07T06:07:22.917Z,7.45
2023-01-07T06:09:49.493Z,8.32
2023-01-07T06:12:16.207Z,10.30
2023-01-07T06:14:42.806Z,6.47
2023-01-07T06:17:09.489Z,9.43
2023-01-07T06:19:36.192Z,7.25
2023-01-07T06:22:02.798Z,8.68
2023-01-07T06:24:29.426Z,8.82
2023-01-07T06:26:56.180Z,6.82
2023-01-07T06:29:22.778Z,6.72
2023-01-07T06:31:49.375Z,6.72
2023-01-07T06:34:15.955Z,8.35
2023-01-07T06:36:42.536Z,9.82
2023-01-07T06:39:09.217Z,4.57
2023-01-07T06:41:35.865Z,6.05
2023-01-07T06:44:02.460Z,5.75
2023-01-07T06:46:29.350Z,6.07
2023-01-07T06:48:56.030Z,7.10
2023-01-07T06:51:22.669Z,9.15
2023-01-07T06:53:49.331Z,7.93
2023-01-07T06:56:15.927Z,5.85
2023-01-07T06:58:42.606Z,5.65
2023-01-07T07:01:09.443Z,7.63
2023-01-07T07:03:36.227Z,5.18
2023-01-07T07:06:03.158Z,5.80
2023-01-07T07:08:29.821Z,7.90
2023-01-07T07:10:56.401Z,7.70
2023-01-07T07:13:23.023Z,4.38
2023-01-07T07:15:49.886Z,5.75
2023-01-07T07:18:17.954Z,4.57
2023-01-07T07:20:46.815Z,6.07
2023-01-07T07:23:13.682Z,6.97
2023-01-07T07:25:40.322Z,4.63
2023-01-07T07:28:06.883Z,2.72
2023-01-07T07:30:47.090Z,7.47
2023-01-07T07:33:15.450Z,3.58
2023-01-07T07:35:42.119Z,3.63
2023-01-07T07:38:08.800Z,4.70
2023-01-07T07:40:35.461Z,4.18
2023-01-07T07:43:11.628Z,6.50
2023-01-07T07:45:42.213Z,2.92
2023-01-07T07:48:10.263Z,3.88
2023-01-07T07:50:37.187Z,4.45
2023-01-07T07:53:04.472Z,2.90
2023-01-07T07:55:32.089Z,2.72
2023-01-07T07:57:58.702Z,5.30
2023-01-07T08:00:25.425Z,3.85
2023-01-07T08:02:52.178Z,4.32
2023-01-07T08:05:19.020Z,3.03
2023-01-07T08:07:45.684Z,3.75
2023-01-07T08:10:12.318Z,5.28
2023-01-07T08:12:39.424Z,3.72
2023-01-07T08:15:07.420Z,2.30
2023-01-07T08:17:35.134Z,5.05
2023-01-07T08:20:02.328Z,3.40
2023-01-07T08:22:29.001Z,2.83
2023-01-07T08:24:55.658Z,3.45
2023-01-07T08:27:22.325Z,2.75
2023-01-07T08:29:48.985Z,5.10
2023-01-07T08:32:15.750Z,2.78
2023-01-07T08:34:42.314Z,2.67
2023-01-07T08:37:08.932Z,4.00
2023-01-07T08:39:35.553Z,3.80
2023-01-07T08:42:02.185Z,3.20
2023-01-07T08:44:28.774Z,5.93
2023-01-07T08:46:55.519Z,1.92
2023-01-07T08:49:23.521Z,5.45
2023-01-07T08:51:50.177Z,3.65
2023-01-07T08:54:16.804Z,2.45
2023-01-07T08:56:43.440Z,3.45
2023-01-07T08:59:10.096Z,3.17
2023-01-07T09:01:37.036Z,2.47
2023-01-07T09:04:03.892Z,2.60
2023-01-07T09:06:30.498Z,2.53
2023-01-07T09:08:57.134Z,2.35
2023-01-07T09:11:23.824Z,2.38
2023-01-07T09:13:50.541Z,2.63
2023-01-07T09:16:17.185Z,1.98
2023-01-07T09:18:43.837Z,3.45
2023-01-07T09:21:10.459Z,3.20
2023-01-07T09:23:37.135Z,1.73
2023-01-07T09:26:03.843Z,2.30
2023-01-07T09:28:30.484Z,2.70
2023-01-07T09:30:57.143Z,3.38
2023-01-07T09:33:24.032Z,3.72
2023-01-07T09:35:50.585Z,1.65
2023-01-07T09:38:17.199Z,2.08
2023-01-07T09:40:44.727Z,2.03
2023-01-07T09:43:59.501Z,2.35
2023-01-07T09:46:18.293Z,1.60
2023-01-07T09:48:55.463Z,1.25
2023-01-07T09:51:24.240Z,0.80
2023-01-07T09:53:54.453Z,1.85
2023-01-07T09:56:26.245Z,3.45
2023-01-07T10:01:41.572Z,3.25
2023-01-07T10:04:23.152Z,1.00
2023-01-07T10:07:16.484Z,1.30
2023-01-07T10:09:54.158Z,1.65
2023-01-07T10:12:38.846Z,6.75
2023-01-07T10:15:23.583Z,3.95
2023-01-07T10:18:31.457Z,0.95
2023-01-07T10:20:59.274Z,7.57
2023-01-07T10:23:31.794Z,3.10
2023-01-07T10:26:01.326Z,1.20
2023-01-07T10:28:33.671Z,29.83
2023-01-07T10:31:01.581Z,5.10
2023-01-07T10:33:31.440Z,4.63
2023-01-07T10:36:26.519Z,3.38
2023-01-07T10:39:35.197Z,2.50
2023-01-07T10:42:18.077Z,1.75
2023-01-07T10:45:05.928Z,1.85
2023-01-07T10:48:06.931Z,2.05
2023-01-07T10:50:53.016Z,3.28
2023-01-07T10:53:51.880Z,1.20
2023-01-07T10:56:47.171Z,2.45
2023-01-07T10:59:17.295Z,3.97
2023-01-07T11:01:54.480Z,2.72
2023-01-07T11:04:21.437Z,2.13
2023-01-07T11:06:53.475Z,2.85
2023-01-07T11:09:31.362Z,1.38
2023-01-07T11:12:27.487Z,1.33
2023-01-07T11:14:56.953Z,2.00
2023-01-07T11:17:41.636Z,2.10
2023-01-07T11:20:09.124Z,1.63
2023-01-07T11:22:38.006Z,2.85
2023-01-07T11:25:29.046Z,1.65
2023-01-07T11:27:59.684Z,2.03
2023-01-07T11:30:32.093Z,1.27
2023-01-07T11:33:02.655Z,1.45
2023-01-07T11:35:29.579Z,4.57
2023-01-07T11:37:57.553Z,1.45
2023-01-07T11:40:29.872Z,4.40
2023-01-07T11:42:57.715Z,1.33
2023-01-07T11:45:32.759Z,2.83
2023-01-07T11:48:06.731Z,1.98
2023-01-07T11:50:38.130Z,1.38
2023-01-07T11:53:34.640Z,1.13
2023-01-07T11:56:02.692Z,1.85
2023-01-07T11:58:32.812Z,3.60
2023-01-07T12:01:04.192Z,1.50
2023-01-07T12:03:30.896Z,2.17
2023-01-07T12:06:01.434Z,1.52
2023-01-07T12:08:28.419Z,1.17
2023-01-07T12:10:57.316Z,3.75
2023-01-07T12:13:27.458Z,1.00
2023-01-07T12:15:57.578Z,1.55
2023-01-07T12:18:39.169Z,3.17
2023-01-07T12:21:08.784Z,1.05
2023-01-07T12:24:00.349Z,1.83
2023-01-07T12:26:39.823Z,2.88
2023-01-07T12:29:09.286Z,2.22
2023-01-07T12:31:44.799Z,1.45
2023-01-07T12:34:39.224Z,2.63
2023-01-07T12:37:20.157Z,1.85
2023-01-07T12:39:47.009Z,1.30
2023-01-07T12:42:28.991Z,3.03
2023-01-07T12:45:04.424Z,1.98
2023-01-07T12:47:38.273Z,1.60
2023-01-07T12:50:25.258Z,2.55
2023-01-07T12:53:04.253Z,2.40
2023-01-07T12:55:34.071Z,2.10
2023-01-07T12:58:10.988Z,1.40
2023-01-07T13:00:46.752Z,1.63
2023-01-07T13:03:28.177Z,1.92
2023-01-07T13:06:01.623Z,1.20
2023-01-07T13:08:39.988Z,1.98
2023-01-07T13:11:18.418Z,2.60
2023-01-07T13:13:50.992Z,1.52
2023-01-07T13:16:17.785Z,2.63
2023-01-07T13:18:44.621Z,1.58
2023-01-07T13:21:14.069Z,1.60
2023-01-07T13:23:58.553Z,1.45
2023-01-07T13:26:48.721Z,1.70
2023-01-07T13:29:30.486Z,1.50
2023-01-07T13:32:15.348Z,2.17
2023-01-07T13:35:07.571Z,3.55
2023-01-07T13:37:59.601Z,3.38
2023-01-07T13:43:38.766Z,4.13
2023-01-07T13:46:18.840Z,3.10
2023-01-07T13:48:50.967Z,4.70
2023-01-07T13:51:29.793Z,4.43
2023-01-07T13:53:56.581Z,2.72
2023-01-07T13:56:23.182Z,1.48
2023-01-07T13:58:53.157Z,3.53
2023-01-07T14:01:23.642Z,3.65
2023-01-07T14:03:58.677Z,1.67
2023-01-07T14:06:41.781Z,2.20
2023-01-07T14:09:08.454Z,2.72
2023-01-07T14:11:41.845Z,3.20
2023-01-07T14:14:23.508Z,2.17
2023-01-07T14:17:22.098Z,2.92
2023-01-07T14:20:21.232Z,1.20
2023-01-07T14:23:14.181Z,2.85
2023-01-07T14:25:54.240Z,2.83
2023-01-07T14:28:35.930Z,3.20
2023-01-07T14:31:03.019Z,1.98
2023-01-07T14:33:39.736Z,1.40
2023-01-07T14:36:09.176Z,1.55
2023-01-07T14:38:35.740Z,2.10
2023-01-07T14:41:09.830Z,1.50
2023-01-07T14:43:48.330Z,1.73
2023-01-07T14:46:24.102Z,2.78
2023-01-07T14:49:03.068Z,2.45
2023-01-07T14:51:56.328Z,2.13
2023-01-07T14:54:25.899Z,2.65
2023-01-07T14:56:52.529Z,2.40
2023-01-07T14:59:21.876Z,2.08
2023-01-07T15:02:19.032Z,2.65
2023-01-07T15:05:11.690Z,2.00
2023-01-07T15:07:40.768Z,3.25
2023-01-07T15:10:37.957Z,1.67
2023-01-07T15:13:25.273Z,2.75
2023-01-07T15:16:01.103Z,2.13
2023-01-07T15:18:30.598Z,2.20
2023-01-07T15:21:04.487Z,2.35
2023-01-07T15:23:47.138Z,2.17
2023-01-07T15:26:28.797Z,1.85
2023-01-07T15:29:15.616Z,1.67
2023-01-07T15:32:16.064Z,3.40
2023-01-07T15:34:43.760Z,3.05
2023-01-07T15:37:15.121Z,3.13
2023-01-07T15:39:49.550Z,2.42
2023-01-07T15:42:20.283Z,2.88
2023-01-07T15:44:56.234Z,2.90
2023-01-07T15:47:36.839Z,2.95
2023-01-07T15:50:28.021Z,2.78
2023-01-07T15:52:56.325Z,2.93
2023-01-07T15:55:27.777Z,2.58
2023-01-07T15:58:01.229Z,1.92
2023-01-07T16:00:28.008Z,1.58
2023-01-07T16:02:55.954Z,3.10
2023-01-07T16:05:25.144Z,3.33
2023-01-07T16:08:01.673Z,3.88
2023-01-07T16:10:32.377Z,2.22
2023-01-07T16:13:15.900Z,5.07
2023-01-07T16:15:42.553Z,2.63
2023-01-07T16:18:09.109Z,3.65
2023-01-07T16:20:48.936Z,4.82
2023-01-07T16:23:21.742Z,4.72
2023-01-07T16:25:50.894Z,2.67
2023-01-07T16:28:22.335Z,2.42
2023-01-07T16:30:51.082Z,3.92
2023-01-07T16:33:21.371Z,3.65
2023-01-07T16:35:49.704Z,2.70
2023-01-07T16:38:18.996Z,2.55
2023-01-07T16:40:47.087Z,3.33
2023-01-07T16:43:38.414Z,4.22
2023-01-07T16:46:22.321Z,3.83
2023-01-07T16:49:08.832Z,3.58
2023-01-07T16:51:39.692Z,2.72
2023-01-07T16:54:23.309Z,2.20
2023-01-07T16:56:55.940Z,2.53
2023-01-07T16:59:27.263Z,3.13
2023-01-07T17:01:54.745Z,2.70
2023-01-07T17:04:27.805Z,2.97
2023-01-07T17:06:54.796Z,2.45
2023-01-07T17:09:39.923Z,6.03
2023-01-07T17:12:06.664Z,3.72
2023-01-07T17:14:33.344Z,3.50
2023-01-07T17:17:04.022Z,4.38
2023-01-07T17:19:43.249Z,4.10
2023-01-07T17:22:32.743Z,4.18
2023-01-07T17:25:03.547Z,4.30
2023-01-07T17:27:30.899Z,4.95
2023-01-07T17:30:01.707Z,4.45
2023-01-07T17:32:30.012Z,5.00
2023-01-07T17:35:01.853Z,4.13
2023-01-07T17:39:55.177Z,3.03
2023-01-07T17:42:43.581Z,4.43
2023-01-07T17:45:15.860Z,3.75
2023-01-07T17:47:42.568Z,3.25
2023-01-07T17:50:12.883Z,4.32
2023-01-07T17:52:40.704Z,3.22
2023-01-07T17:55:07.637Z,4.10
2023-01-07T17:57:34.253Z,5.28
2023-01-07T18:00:00.836Z,3.88
2023-01-07T18:02:30.263Z,3.80
2023-01-07T18:04:57.107Z,3.65
2023-01-07T18:07:23.743Z,4.15
2023-01-07T18:09:50.395Z,3.70
2023-01-07T18:12:31.221Z,5.05
2023-01-07T18:15:02.430Z,4.25
2023-01-07T18:17:29.159Z,4.72
2023-01-07T18:19:55.926Z,3.88
2023-01-07T18:22:22.864Z,4.35
2023-01-07T18:24:49.529Z,3.17
2023-01-07T18:27:17.471Z,4.68
2023-01-07T18:29:44.635Z,3.85
2023-01-07T18:32:11.493Z,2.63
2023-01-07T18:34:38.133Z,5.30
2023-01-07T18:37:04.852Z,5.05
2023-01-07T18:39:31.492Z,4.80
2023-01-07T18:41:58.096Z,2.42
2023-01-07T18:44:25.213Z,4.18
2023-01-07T18:46:51.997Z,3.35
2023-01-07T18:49:18.691Z,3.63
2023-01-07T18:51:46.856Z,4.22
2023-01-07T18:54:13.824Z,6.20
2023-01-07T18:56:40.478Z,4.93
2023-01-07T18:59:07.078Z,3.65
2023-01-07T19:01:33.852Z,5.15
2023-01-07T19:04:00.629Z,3.83
2023-01-07T19:06:27.316Z,4.05
2023-01-07T19:08:55.373Z,5.03
2023-01-07T19:11:22.190Z,5.72
2023-01-07T19:13:48.790Z,6.47
2023-01-07T19:16:15.528Z,4.60
2023-01-07T19:18:42.213Z,3.20
2023-01-07T19:21:11.757Z,4.20
2023-01-07T19:23:38.467Z,5.18
2023-01-07T19:26:07.555Z,6.03
2023-01-07T19:28:34.292Z,5.38
2023-01-07T19:31:05.090Z,3.38
2023-01-07T19:33:31.876Z,4.43
2023-01-07T19:36:10.574Z,3.67
2023-01-07T19:38:42.758Z,3.60
2023-01-07T19:41:14.772Z,4.55
2023-01-07T19:43:41.527Z,4.35
2023-01-07T19:46:09.677Z,5.35
2023-01-07T19:48:36.300Z,3.40
2023-01-07T19:51:05.156Z,3.78
2023-01-07T19:53:33.048Z,4.80
2023-01-07T19:56:17.586Z,4.75
2023-01-07T19:58:44.437Z,5.38
2023-01-07T20:01:13.601Z,4.13
2023-01-07T20:03:40.762Z,4.57
2023-01-07T20:06:13.224Z,5.30
2023-01-07T20:08:40.207Z,6.10
2023-01-07T20:11:06.967Z,7.63
2023-01-07T20:13:35.715Z,5.35
2023-01-07T20:16:13.222Z,7.38
2023-01-07T20:18:42.470Z,7.03
2023-01-07T20:21:10.226Z,4.05
2023-01-07T20:23:38.589Z,4.38
2023-01-07T20:26:08.720Z,4.68
2023-01-07T20:28:35.661Z,4.70
2023-01-07T20:31:07.157Z,4.72
2023-01-07T20:33:34.328Z,3.78
2023-01-07T20:36:02.729Z,4.28
2023-01-07T20:38:29.559Z,6.07
2023-01-07T20:40:56.405Z,4.60
2023-01-07T20:43:24.502Z,5.47
2023-01-07T20:45:51.160Z,6.07
2023-01-07T20:48:17.822Z,9.35
2023-01-07T20:50:47.799Z,4.40
2023-01-07T20:53:14.823Z,4.25
2023-01-07T20:55:41.486Z,4.43
2023-01-07T20:58:08.194Z,7.40
2023-01-07T21:00:35.130Z,4.88
2023-01-07T21:03:01.781Z,4.05
2023-01-07T21:05:28.449Z,4.13
2023-01-07T21:07:55.053Z,4.05
2023-01-07T21:10:21.652Z,4.45
2023-01-07T21:12:48.318Z,4.78
2023-01-07T21:15:16.082Z,2.83
2023-01-07T21:17:43.184Z,3.97
2023-01-07T21:20:14.832Z,3.13
2023-01-07T21:22:42.240Z,5.60
2023-01-07T21:25:11.301Z,4.30
2023-01-07T21:27:38.420Z,3.38
2023-01-07T21:30:07.276Z,3.50
2023-01-07T21:32:35.111Z,2.88
2023-01-07T21:35:01.975Z,4.45
2023-01-07T21:37:29.400Z,3.80
2023-01-07T21:39:56.124Z,3.78
2023-01-07T21:42:22.712Z,3.65
2023-01-07T21:44:49.833Z,5.13
2023-01-07T21:47:16.589Z,3.15
2023-01-07T21:49:43.633Z,3.45
2023-01-07T21:52:10.315Z,4.80
2023-01-07T21:54:36.899Z,5.85
2023-01-07T21:57:03.875Z,5.60
2023-01-07T21:59:30.484Z,3.35
2023-01-07T22:01:57.275Z,4.88
2023-01-07T22:04:24.009Z,4.22
2023-01-07T22:06:50.838Z,4.07
2023-01-07T22:09:17.635Z,4.85
2023-01-07T22:11:44.294Z,6.32
2023-01-07T22:14:16.769Z,5.97
2023-01-07T22:16:43.866Z,5.05
2023-01-07T22:19:13.748Z,5.53
2023-01-07T22:21:40.986Z,4.63
2023-01-07T22:24:07.871Z,5.03
2023-01-07T22:26:35.931Z,4.47
2023-01-07T22:29:06.204Z,5.50
2023-01-07T22:31:36.549Z,3.35
2023-01-07T22:34:04.728Z,4.63
2023-01-07T22:36:34.292Z,4.80
2023-01-07T22:39:10.146Z,5.18
2023-01-07T22:41:37.099Z,4.15
2023-01-07T22:44:08.623Z,4.38
2023-01-07T22:46:36.744Z,4.80
2023-01-07T22:49:03.443Z,4.35
2023-01-07T22:51:36.492Z,5.18
2023-01-07T22:54:04.303Z,4.70
2023-01-07T22:56:33.264Z,4.30
2023-01-07T22:58:59.908Z,5.05
2023-01-07T23:01:26.578Z,4.10
2023-01-07T23:03:53.319Z,4.03
2023-01-07T23:06:20.083Z,5.13
2023-01-07T23:08:46.699Z,5.78
2023-01-07T23:11:33.282Z,4.63
2023-01-07T23:13:59.973Z,4.13
2023-01-07T23:16:26.658Z,3.40
2023-01-07T23:18:53.413Z,5.57
2023-01-07T23:21:20.233Z,4.47
2023-01-07T23:23:46.869Z,6.35
2023-01-07T23:26:14.101Z,6.22
2023-01-07T23:28:41.365Z,5.20
2023-01-07T23:31:08.089Z,5.85
2023-01-07T23:33:34.709Z,7.38
2023-01-07T23:36:03.074Z,4.07
2023-01-07T23:38:29.730Z,3.78
2023-01-07T23:41:01.028Z,5.43
2023-01-07T23:43:27.715Z,4.90
2023-01-07T23:45:57.727Z,4.80
2023-01-07T23:48:26.663Z,3.97
2023-01-07T23:50:54.369Z,3.72
2023-01-07T23:53:21.543Z,5.47
2023-01-07T23:55:52.928Z,6.13
2023-01-07T23:58:20.528Z,6.28
